sensor_id;sensor_type;location;lat;lon;timestamp;pressure;altitude;pressure_sealevel;temperature;humidity
65394;BME280;52002;49.760;6.512;2023-12-22T00:00:08;98998.56;;;7.38;82.70
65394;BME280;52002;49.760;6.512;2023-12-22T00:02:34;99012.17;;;7.40;82.74
65394;BME280;52002;49.760;6.512;2023-12-22T00:04:59;99013.29;;;7.41;82.55
65394;BME280;52002;49.760;6.512;2023-12-22T00:07:24;99021.98;;;7.41;82.38
65394;BME280;52002;49.760;6.512;2023-12-22T00:09:50;99019.69;;;7.43;82.13
65394;BME280;52002;49.760;6.512;2023-12-22T00:12:15;99009.81;;;7.44;81.97
65394;BME280;52002;49.760;6.512;2023-12-22T00:14:41;99006.16;;;7.43;81.95
65394;BME280;52002;49.760;6.512;2023-12-22T00:17:07;99011.45;;;7.42;82.06
65394;BME280;52002;49.760;6.512;2023-12-22T00:19:32;99010.55;;;7.38;82.04
65394;BME280;52002;49.760;6.512;2023-12-22T00:21:58;99013.33;;;7.33;82.10
65394;BME280;52002;49.760;6.512;2023-12-22T00:24:23;99014.13;;;7.28;81.84
65394;BME280;52002;49.760;6.512;2023-12-22T00:26:49;99000.08;;;7.23;82.11
65394;BME280;52002;49.760;6.512;2023-12-22T00:29:14;99002.41;;;7.19;81.97
65394;BME280;52002;49.760;6.512;2023-12-22T00:31:39;98993.95;;;7.16;82.29
65394;BME280;52002;49.760;6.512;2023-12-22T00:34:05;99001.63;;;7.13;82.20
65394;BME280;52002;49.760;6.512;2023-12-22T00:36:30;99002.22;;;7.11;82.16
65394;BME280;52002;49.760;6.512;2023-12-22T00:38:55;98996.27;;;7.08;82.23
65394;BME280;52002;49.760;6.512;2023-12-22T00:41:21;99004.62;;;7.06;82.04
65394;BME280;52002;49.760;6.512;2023-12-22T00:43:46;98993.90;;;7.05;82.15
65394;BME280;52002;49.760;6.512;2023-12-22T00:46:13;98990.29;;;7.06;82.40
65394;BME280;52002;49.760;6.512;2023-12-22T00:48:38;98994.46;;;7.08;82.44
65394;BME280;52002;49.760;6.512;2023-12-22T00:51:06;98997.73;;;7.12;82.29
65394;BME280;52002;49.760;6.512;2023-12-22T00:53:32;98996.23;;;7.15;82.07
65394;BME280;52002;49.760;6.512;2023-12-22T00:55:59;99007.81;;;7.18;81.85
65394;BME280;52002;49.760;6.512;2023-12-22T00:58:25;99011.25;;;7.21;81.82
65394;BME280;52002;49.760;6.512;2023-12-22T01:00:51;99007.93;;;7.24;81.77
65394;BME280;52002;49.760;6.512;2023-12-22T01:03:16;99006.13;;;7.28;81.54
65394;BME280;52002;49.760;6.512;2023-12-22T01:05:42;99008.35;;;7.33;81.49
65394;BME280;52002;49.760;6.512;2023-12-22T01:08:07;99003.65;;;7.38;81.32
65394;BME280;52002;49.760;6.512;2023-12-22T01:10:33;99003.56;;;7.43;81.44
65394;BME280;52002;49.760;6.512;2023-12-22T01:12:58;98994.27;;;7.46;81.14
65394;BME280;52002;49.760;6.512;2023-12-22T01:15:23;98991.63;;;7.48;81.02
65394;BME280;52002;49.760;6.512;2023-12-22T01:17:48;99016.50;;;7.51;81.04
65394;BME280;52002;49.760;6.512;2023-12-22T01:20:14;99035.92;;;7.53;80.85
65394;BME280;52002;49.760;6.512;2023-12-22T01:22:39;99035.58;;;7.55;80.66
65394;BME280;52002;49.760;6.512;2023-12-22T01:25:05;99041.29;;;7.57;80.40
65394;BME280;52002;49.760;6.512;2023-12-22T01:27:31;99054.98;;;7.58;80.28
65394;BME280;52002;49.760;6.512;2023-12-22T01:29:57;99059.36;;;7.60;80.04
65394;BME280;52002;49.760;6.512;2023-12-22T01:32:22;99063.71;;;7.63;79.92
65394;BME280;52002;49.760;6.512;2023-12-22T01:34:47;99065.63;;;7.66;79.33
65394;BME280;52002;49.760;6.512;2023-12-22T01:37:13;99056.23;;;7.69;78.94
65394;BME280;52002;49.760;6.512;2023-12-22T01:39:38;99042.05;;;7.71;78.60
65394;BME280;52002;49.760;6.512;2023-12-22T01:42:04;99035.65;;;7.73;78.67
65394;BME280;52002;49.760;6.512;2023-12-22T01:44:29;99044.66;;;7.74;78.85
65394;BME280;52002;49.760;6.512;2023-12-22T01:46:55;99050.67;;;7.74;78.86
65394;BME280;52002;49.760;6.512;2023-12-22T01:49:21;99041.58;;;7.74;79.06
65394;BME280;52002;49.760;6.512;2023-12-22T01:51:47;99042.95;;;7.75;79.40
65394;BME280;52002;49.760;6.512;2023-12-22T01:54:14;99057.21;;;7.74;79.52
65394;BME280;52002;49.760;6.512;2023-12-22T01:56:41;99061.86;;;7.73;79.69
65394;BME280;52002;49.760;6.512;2023-12-22T01:59:08;99077.02;;;7.74;79.72
65394;BME280;52002;49.760;6.512;2023-12-22T02:01:34;99075.40;;;7.73;79.86
65394;BME280;52002;49.760;6.512;2023-12-22T02:04:00;99074.73;;;7.74;80.24
65394;BME280;52002;49.760;6.512;2023-12-22T02:06:30;99085.73;;;7.74;80.71
65394;BME280;52002;49.760;6.512;2023-12-22T02:08:57;99085.35;;;7.72;80.65
65394;BME280;52002;49.760;6.512;2023-12-22T02:11:22;99094.42;;;7.68;80.69
65394;BME280;52002;49.760;6.512;2023-12-22T02:13:48;99106.59;;;7.67;80.78
65394;BME280;52002;49.760;6.512;2023-12-22T02:16:20;99122.56;;;7.67;80.83
65394;BME280;52002;49.760;6.512;2023-12-22T02:18:48;99141.66;;;7.67;81.07
65394;BME280;52002;49.760;6.512;2023-12-22T02:21:16;99157.09;;;7.65;81.18
65394;BME280;52002;49.760;6.512;2023-12-22T02:23:41;99152.05;;;7.64;81.31
65394;BME280;52002;49.760;6.512;2023-12-22T02:26:12;99134.38;;;7.63;81.18
65394;BME280;52002;49.760;6.512;2023-12-22T02:28:43;99126.33;;;7.60;81.10
65394;BME280;52002;49.760;6.512;2023-12-22T02:31:18;99114.33;;;7.58;81.16
65394;BME280;52002;49.760;6.512;2023-12-22T02:33:45;99104.75;;;7.56;81.43
65394;BME280;52002;49.760;6.512;2023-12-22T02:36:13;99104.89;;;7.54;81.50
65394;BME280;52002;49.760;6.512;2023-12-22T02:38:40;99117.31;;;7.50;81.59
65394;BME280;52002;49.760;6.512;2023-12-22T02:41:08;99096.99;;;7.48;81.65
65394;BME280;52002;49.760;6.512;2023-12-22T02:43:33;99098.66;;;7.45;81.54
65394;BME280;52002;49.760;6.512;2023-12-22T02:45:59;99098.29;;;7.41;81.31
65394;BME280;52002;49.760;6.512;2023-12-22T02:48:24;99110.92;;;7.38;80.86
65394;BME280;52002;49.760;6.512;2023-12-22T02:50:50;99113.36;;;7.35;80.32
65394;BME280;52002;49.760;6.512;2023-12-22T02:53:16;99121.10;;;7.32;80.32
65394;BME280;52002;49.760;6.512;2023-12-22T02:55:41;99118.58;;;7.28;80.12
65394;BME280;52002;49.760;6.512;2023-12-22T02:58:06;99116.45;;;7.26;80.22
65394;BME280;52002;49.760;6.512;2023-12-22T03:00:32;99113.34;;;7.23;80.28
65394;BME280;52002;49.760;6.512;2023-12-22T03:02:57;99100.39;;;7.22;80.30
65394;BME280;52002;49.760;6.512;2023-12-22T03:05:22;99099.02;;;7.19;80.44
65394;BME280;52002;49.760;6.512;2023-12-22T03:07:48;99092.40;;;7.16;80.40
65394;BME280;52002;49.760;6.512;2023-12-22T03:10:13;99083.52;;;7.14;80.27
65394;BME280;52002;49.760;6.512;2023-12-22T03:12:38;99079.02;;;7.13;80.52
65394;BME280;52002;49.760;6.512;2023-12-22T03:15:05;99076.36;;;7.11;80.51
65394;BME280;52002;49.760;6.512;2023-12-22T03:17:30;99072.90;;;7.08;80.56
65394;BME280;52002;49.760;6.512;2023-12-22T03:19:56;99090.16;;;7.05;80.77
65394;BME280;52002;49.760;6.512;2023-12-22T03:22:21;99093.95;;;7.02;81.05
65394;BME280;52002;49.760;6.512;2023-12-22T03:24:46;99091.58;;;7.03;81.12
65394;BME280;52002;49.760;6.512;2023-12-22T03:27:12;99089.71;;;7.04;81.28
65394;BME280;52002;49.760;6.512;2023-12-22T03:29:42;99086.87;;;7.04;81.35
65394;BME280;52002;49.760;6.512;2023-12-22T03:32:08;99076.87;;;7.05;81.20
65394;BME280;52002;49.760;6.512;2023-12-22T03:34:33;99077.67;;;7.06;81.29
65394;BME280;52002;49.760;6.512;2023-12-22T03:36:58;99079.59;;;7.06;81.18
65394;BME280;52002;49.760;6.512;2023-12-22T03:39:24;99080.84;;;7.08;81.45
65394;BME280;52002;49.760;6.512;2023-12-22T03:41:49;99072.98;;;7.11;81.52
65394;BME280;52002;49.760;6.512;2023-12-22T03:44:14;99074.88;;;7.14;81.78
65394;BME280;52002;49.760;6.512;2023-12-22T03:46:40;99076.84;;;7.16;81.56
65394;BME280;52002;49.760;6.512;2023-12-22T03:49:05;99086.27;;;7.19;81.58
65394;BME280;52002;49.760;6.512;2023-12-22T03:51:31;99090.62;;;7.22;81.65
65394;BME280;52002;49.760;6.512;2023-12-22T03:53:56;99098.11;;;7.23;81.46
65394;BME280;52002;49.760;6.512;2023-12-22T03:56:21;99104.79;;;7.26;81.46
65394;BME280;52002;49.760;6.512;2023-12-22T03:58:47;99112.17;;;7.28;81.51
65394;BME280;52002;49.760;6.512;2023-12-22T04:01:15;99105.98;;;7.30;81.43
65394;BME280;52002;49.760;6.512;2023-12-22T04:03:41;99113.91;;;7.33;81.22
65394;BME280;52002;49.760;6.512;2023-12-22T04:06:06;99116.15;;;7.35;81.08
65394;BME280;52002;49.760;6.512;2023-12-22T04:08:32;99111.40;;;7.37;80.96
65394;BME280;52002;49.760;6.512;2023-12-22T04:10:57;99107.88;;;7.39;81.00
65394;BME280;52002;49.760;6.512;2023-12-22T04:13:22;99099.16;;;7.41;80.80
65394;BME280;52002;49.760;6.512;2023-12-22T04:15:48;99108.33;;;7.43;80.63
65394;BME280;52002;49.760;6.512;2023-12-22T04:18:13;99118.58;;;7.46;80.46
65394;BME280;52002;49.760;6.512;2023-12-22T04:20:38;99122.98;;;7.48;80.46
65394;BME280;52002;49.760;6.512;2023-12-22T04:23:04;99143.58;;;7.50;80.34
65394;BME280;52002;49.760;6.512;2023-12-22T04:25:30;99143.30;;;7.51;79.89
65394;BME280;52002;49.760;6.512;2023-12-22T04:27:55;99142.62;;;7.52;79.51
65394;BME280;52002;49.760;6.512;2023-12-22T04:30:20;99144.12;;;7.53;79.29
65394;BME280;52002;49.760;6.512;2023-12-22T04:32:46;99156.02;;;7.55;79.07
65394;BME280;52002;49.760;6.512;2023-12-22T04:35:11;99156.30;;;7.56;78.80
65394;BME280;52002;49.760;6.512;2023-12-22T04:37:36;99163.06;;;7.57;78.61
65394;BME280;52002;49.760;6.512;2023-12-22T04:40:02;99154.29;;;7.56;78.44
65394;BME280;52002;49.760;6.512;2023-12-22T04:42:28;99171.30;;;7.54;78.26
65394;BME280;52002;49.760;6.512;2023-12-22T04:44:54;99165.12;;;7.54;78.05
65394;BME280;52002;49.760;6.512;2023-12-22T04:47:19;99169.12;;;7.53;77.76
65394;BME280;52002;49.760;6.512;2023-12-22T04:49:45;99169.62;;;7.51;77.23
65394;BME280;52002;49.760;6.512;2023-12-22T04:52:11;99177.77;;;7.50;77.06
65394;BME280;52002;49.760;6.512;2023-12-22T04:54:37;99170.88;;;7.47;76.89
65394;BME280;52002;49.760;6.512;2023-12-22T04:57:03;99179.23;;;7.45;77.30
65394;BME280;52002;49.760;6.512;2023-12-22T04:59:29;99185.74;;;7.41;77.08
65394;BME280;52002;49.760;6.512;2023-12-22T05:01:55;99188.33;;;7.38;76.66
65394;BME280;52002;49.760;6.512;2023-12-22T05:04:20;99185.05;;;7.37;76.89
65394;BME280;52002;49.760;6.512;2023-12-22T05:06:46;99186.36;;;7.34;76.49
65394;BME280;52002;49.760;6.512;2023-12-22T05:09:12;99188.47;;;7.32;76.54
65394;BME280;52002;49.760;6.512;2023-12-22T05:11:38;99197.27;;;7.31;76.27
65394;BME280;52002;49.760;6.512;2023-12-22T05:14:03;99198.68;;;7.29;76.48
65394;BME280;52002;49.760;6.512;2023-12-22T05:16:29;99206.02;;;7.28;76.90
65394;BME280;52002;49.760;6.512;2023-12-22T05:18:57;99197.58;;;7.27;76.85
65394;BME280;52002;49.760;6.512;2023-12-22T05:21:23;99197.14;;;7.24;77.07
65394;BME280;52002;49.760;6.512;2023-12-22T05:23:48;99196.48;;;7.22;77.16
65394;BME280;52002;49.760;6.512;2023-12-22T05:26:18;99200.93;;;7.18;77.20
65394;BME280;52002;49.760;6.512;2023-12-22T05:28:43;99202.23;;;7.14;77.62
65394;BME280;52002;49.760;6.512;2023-12-22T05:31:09;99196.40;;;7.12;77.63
65394;BME280;52002;49.760;6.512;2023-12-22T05:33:34;99200.55;;;7.11;77.66
65394;BME280;52002;49.760;6.512;2023-12-22T05:36:00;99202.21;;;7.08;77.51
65394;BME280;52002;49.760;6.512;2023-12-22T05:38:25;99195.71;;;7.08;77.73
65394;BME280;52002;49.760;6.512;2023-12-22T05:40:50;99197.70;;;7.08;77.83
65394;BME280;52002;49.760;6.512;2023-12-22T05:43:16;99199.89;;;7.08;77.96
65394;BME280;52002;49.760;6.512;2023-12-22T05:45:41;99201.83;;;7.09;78.17
65394;BME280;52002;49.760;6.512;2023-12-22T05:48:06;99190.77;;;7.10;78.66
65394;BME280;52002;49.760;6.512;2023-12-22T05:50:32;99186.20;;;7.11;78.60
65394;BME280;52002;49.760;6.512;2023-12-22T05:52:57;99189.66;;;7.12;79.05
65394;BME280;52002;49.760;6.512;2023-12-22T05:55:23;99196.89;;;7.13;79.06
65394;BME280;52002;49.760;6.512;2023-12-22T05:57:48;99197.90;;;7.13;79.21
65394;BME280;52002;49.760;6.512;2023-12-22T06:00:14;99196.92;;;7.12;79.40
65394;BME280;52002;49.760;6.512;2023-12-22T06:02:40;99193.20;;;7.12;79.70
65394;BME280;52002;49.760;6.512;2023-12-22T06:05:06;99188.60;;;7.12;79.94
65394;BME280;52002;49.760;6.512;2023-12-22T06:07:32;99194.30;;;7.12;80.18
65394;BME280;52002;49.760;6.512;2023-12-22T06:09:58;99202.25;;;7.12;80.49
65394;BME280;52002;49.760;6.512;2023-12-22T06:12:23;99205.95;;;7.12;80.31
65394;BME280;52002;49.760;6.512;2023-12-22T06:14:48;99210.17;;;7.12;80.33
65394;BME280;52002;49.760;6.512;2023-12-22T06:17:14;99209.73;;;7.14;80.53
65394;BME280;52002;49.760;6.512;2023-12-22T06:19:39;99208.82;;;7.16;80.83
65394;BME280;52002;49.760;6.512;2023-12-22T06:22:04;99207.36;;;7.19;80.88
65394;BME280;52002;49.760;6.512;2023-12-22T06:24:31;99212.88;;;7.20;80.96
65394;BME280;52002;49.760;6.512;2023-12-22T06:26:56;99193.70;;;7.21;80.91
65394;BME280;52002;49.760;6.512;2023-12-22T06:29:22;99192.27;;;7.21;80.71
65394;BME280;52002;49.760;6.512;2023-12-22T06:31:48;99186.40;;;7.20;80.68
65394;BME280;52002;49.760;6.512;2023-12-22T06:34:17;99188.84;;;7.18;80.87
65394;BME280;52002;49.760;6.512;2023-12-22T06:36:42;99179.94;;;7.17;80.99
65394;BME280;52002;49.760;6.512;2023-12-22T06:39:08;99179.94;;;7.17;81.32
65394;BME280;52002;49.760;6.512;2023-12-22T06:41:33;99175.90;;;7.16;81.26
65394;BME280;52002;49.760;6.512;2023-12-22T06:43:59;99182.70;;;7.17;81.37
65394;BME280;52002;49.760;6.512;2023-12-22T06:46:28;99178.63;;;7.19;81.60
65394;BME280;52002;49.760;6.512;2023-12-22T06:48:57;99191.41;;;7.19;81.43
65394;BME280;52002;49.760;6.512;2023-12-22T06:51:25;99193.11;;;7.22;81.42
65394;BME280;52002;49.760;6.512;2023-12-22T06:53:56;99197.27;;;7.25;81.53
65394;BME280;52002;49.760;6.512;2023-12-22T06:56:23;99204.04;;;7.26;81.56
65394;BME280;52002;49.760;6.512;2023-12-22T06:58:51;99206.14;;;7.27;81.57
65394;BME280;52002;49.760;6.512;2023-12-22T07:03:46;99214.27;;;7.27;81.32
65394;BME280;52002;49.760;6.512;2023-12-22T07:06:16;99215.66;;;7.27;81.17
65394;BME280;52002;49.760;6.512;2023-12-22T07:08:42;99213.38;;;7.29;81.17
65394;BME280;52002;49.760;6.512;2023-12-22T07:11:11;99216.50;;;7.32;81.02
65394;BME280;52002;49.760;6.512;2023-12-22T07:13:37;99214.05;;;7.33;80.89
65394;BME280;52002;49.760;6.512;2023-12-22T07:16:03;99214.20;;;7.35;81.06
65394;BME280;52002;49.760;6.512;2023-12-22T07:18:29;99217.77;;;7.36;80.86
65394;BME280;52002;49.760;6.512;2023-12-22T07:20:59;99211.64;;;7.38;81.10
65394;BME280;52002;49.760;6.512;2023-12-22T07:23:25;99211.20;;;7.41;80.80
65394;BME280;52002;49.760;6.512;2023-12-22T07:25:50;99217.53;;;7.44;80.56
65394;BME280;52002;49.760;6.512;2023-12-22T07:28:16;99214.48;;;7.47;80.78
65394;BME280;52002;49.760;6.512;2023-12-22T07:30:41;99214.19;;;7.48;80.43
65394;BME280;52002;49.760;6.512;2023-12-22T07:33:07;99217.89;;;7.48;80.20
65394;BME280;52002;49.760;6.512;2023-12-22T07:35:33;99224.03;;;7.49;80.32
65394;BME280;52002;49.760;6.512;2023-12-22T07:37:58;99218.98;;;7.50;80.34
65394;BME280;52002;49.760;6.512;2023-12-22T07:40:24;99209.56;;;7.52;80.31
65394;BME280;52002;49.760;6.512;2023-12-22T07:42:49;99209.05;;;7.52;80.19
65394;BME280;52002;49.760;6.512;2023-12-22T07:45:16;99212.71;;;7.54;80.20
65394;BME280;52002;49.760;6.512;2023-12-22T07:47:41;99220.11;;;7.57;80.29
65394;BME280;52002;49.760;6.512;2023-12-22T07:50:07;99222.05;;;7.59;80.21
65394;BME280;52002;49.760;6.512;2023-12-22T07:52:34;99218.61;;;7.60;80.07
65394;BME280;52002;49.760;6.512;2023-12-22T07:55:06;99219.74;;;7.61;80.01
65394;BME280;52002;49.760;6.512;2023-12-22T07:57:32;99223.50;;;7.63;80.11
65394;BME280;52002;49.760;6.512;2023-12-22T07:59:58;99219.91;;;7.63;80.15
65394;BME280;52002;49.760;6.512;2023-12-22T08:02:23;99224.44;;;7.66;80.24
65394;BME280;52002;49.760;6.512;2023-12-22T08:04:49;99219.87;;;7.69;80.24
65394;BME280;52002;49.760;6.512;2023-12-22T08:07:15;99218.54;;;7.73;80.14
65394;BME280;52002;49.760;6.512;2023-12-22T08:09:41;99227.72;;;7.75;79.99
65394;BME280;52002;49.760;6.512;2023-12-22T08:12:07;99220.31;;;7.79;80.11
65394;BME280;52002;49.760;6.512;2023-12-22T08:14:32;99216.62;;;7.84;80.25
65394;BME280;52002;49.760;6.512;2023-12-22T08:16:58;99211.25;;;7.89;80.04
65394;BME280;52002;49.760;6.512;2023-12-22T08:19:23;99205.94;;;7.93;79.86
65394;BME280;52002;49.760;6.512;2023-12-22T08:21:52;99195.54;;;7.96;79.78
65394;BME280;52002;49.760;6.512;2023-12-22T08:24:17;99209.34;;;7.98;79.59
65394;BME280;52002;49.760;6.512;2023-12-22T08:26:43;99202.61;;;8.02;79.67
65394;BME280;52002;49.760;6.512;2023-12-22T08:29:08;99203.82;;;8.02;79.57
65394;BME280;52002;49.760;6.512;2023-12-22T08:31:34;99201.80;;;8.03;79.49
65394;BME280;52002;49.760;6.512;2023-12-22T08:33:59;99203.00;;;8.03;79.36
65394;BME280;52002;49.760;6.512;2023-12-22T08:36:24;99210.67;;;8.03;79.46
65394;BME280;52002;49.760;6.512;2023-12-22T08:38:50;99208.65;;;8.02;79.30
65394;BME280;52002;49.760;6.512;2023-12-22T08:41:15;99216.36;;;8.01;79.33
65394;BME280;52002;49.760;6.512;2023-12-22T08:43:41;99220.61;;;8.01;79.43
65394;BME280;52002;49.760;6.512;2023-12-22T08:46:07;99223.30;;;8.01;79.57
65394;BME280;52002;49.760;6.512;2023-12-22T08:48:35;99228.39;;;8.01;79.68
65394;BME280;52002;49.760;6.512;2023-12-22T08:51:00;99234.10;;;8.01;79.68
65394;BME280;52002;49.760;6.512;2023-12-22T08:53:26;99228.64;;;8.02;79.82
65394;BME280;52002;49.760;6.512;2023-12-22T08:55:55;99218.20;;;8.04;79.79
65394;BME280;52002;49.760;6.512;2023-12-22T08:58:21;99213.52;;;8.07;79.99
65394;BME280;52002;49.760;6.512;2023-12-22T09:00:47;99213.15;;;8.10;80.07
65394;BME280;52002;49.760;6.512;2023-12-22T09:03:12;99213.13;;;8.11;80.05
65394;BME280;52002;49.760;6.512;2023-12-22T09:05:38;99205.86;;;8.15;80.35
65394;BME280;52002;49.760;6.512;2023-12-22T09:08:04;99210.94;;;8.22;80.29
65394;BME280;52002;49.760;6.512;2023-12-22T09:10:31;99211.58;;;8.26;80.29
65394;BME280;52002;49.760;6.512;2023-12-22T09:12:57;99214.36;;;8.29;80.06
65394;BME280;52002;49.760;6.512;2023-12-22T09:15:23;99212.91;;;8.31;80.35
65394;BME280;52002;49.760;6.512;2023-12-22T09:17:48;99208.82;;;8.33;80.37
65394;BME280;52002;49.760;6.512;2023-12-22T09:20:14;99205.45;;;8.35;80.48
65394;BME280;52002;49.760;6.512;2023-12-22T09:22:39;99207.80;;;8.37;80.13
65394;BME280;52002;49.760;6.512;2023-12-22T09:25:05;99206.98;;;8.38;80.10
65394;BME280;52002;49.760;6.512;2023-12-22T09:27:31;99210.25;;;8.41;80.07
65394;BME280;52002;49.760;6.512;2023-12-22T09:29:56;99198.80;;;8.46;80.15
65394;BME280;52002;49.760;6.512;2023-12-22T09:32:22;99193.83;;;8.54;80.37
65394;BME280;52002;49.760;6.512;2023-12-22T09:34:47;99189.97;;;8.61;80.25
65394;BME280;52002;49.760;6.512;2023-12-22T09:37:13;99180.01;;;8.69;80.22
65394;BME280;52002;49.760;6.512;2023-12-22T09:39:39;99177.52;;;8.77;80.14
65394;BME280;52002;49.760;6.512;2023-12-22T09:42:05;99176.92;;;8.83;80.16
65394;BME280;52002;49.760;6.512;2023-12-22T09:44:32;99168.48;;;8.90;80.22
65394;BME280;52002;49.760;6.512;2023-12-22T09:46:59;99166.77;;;8.95;80.02
65394;BME280;52002;49.760;6.512;2023-12-22T09:49:26;99158.62;;;8.97;79.90
65394;BME280;52002;49.760;6.512;2023-12-22T09:51:53;99152.70;;;9.01;79.84
65394;BME280;52002;49.760;6.512;2023-12-22T09:54:19;99154.55;;;9.06;79.73
65394;BME280;52002;49.760;6.512;2023-12-22T09:56:46;99157.12;;;9.11;79.80
65394;BME280;52002;49.760;6.512;2023-12-22T09:59:13;99157.22;;;9.13;79.79
65394;BME280;52002;49.760;6.512;2023-12-22T10:01:44;99149.82;;;9.16;79.69
65394;BME280;52002;49.760;6.512;2023-12-22T10:04:13;99142.08;;;9.19;79.70
65394;BME280;52002;49.760;6.512;2023-12-22T10:06:38;99138.58;;;9.19;79.69
65394;BME280;52002;49.760;6.512;2023-12-22T10:09:05;99142.05;;;9.20;79.65
65394;BME280;52002;49.760;6.512;2023-12-22T10:11:32;99137.72;;;9.24;79.83
65394;BME280;52002;49.760;6.512;2023-12-22T10:14:01;99139.63;;;9.28;79.29
65394;BME280;52002;49.760;6.512;2023-12-22T10:16:27;99135.73;;;9.30;79.35
65394;BME280;52002;49.760;6.512;2023-12-22T10:18:54;99130.19;;;9.32;79.42
65394;BME280;52002;49.760;6.512;2023-12-22T10:21:20;99126.34;;;9.34;79.28
65394;BME280;52002;49.760;6.512;2023-12-22T10:23:45;99125.05;;;9.34;79.21
65394;BME280;52002;49.760;6.512;2023-12-22T10:26:11;99129.19;;;9.33;79.33
65394;BME280;52002;49.760;6.512;2023-12-22T10:28:36;99125.20;;;9.34;79.36
65394;BME280;52002;49.760;6.512;2023-12-22T10:31:02;99120.81;;;9.34;79.23
65394;BME280;52002;49.760;6.512;2023-12-22T10:33:32;99126.70;;;9.34;79.46
65394;BME280;52002;49.760;6.512;2023-12-22T10:36:00;99127.25;;;9.31;79.33
65394;BME280;52002;49.760;6.512;2023-12-22T10:38:35;99132.40;;;9.33;79.25
65394;BME280;52002;49.760;6.512;2023-12-22T10:41:02;99130.33;;;9.33;79.30
65394;BME280;52002;49.760;6.512;2023-12-22T10:43:28;99136.56;;;9.31;79.31
65394;BME280;52002;49.760;6.512;2023-12-22T10:45:54;99135.13;;;9.31;79.53
65394;BME280;52002;49.760;6.512;2023-12-22T10:48:20;99127.04;;;9.34;79.64
65394;BME280;52002;49.760;6.512;2023-12-22T10:50:45;99126.21;;;9.37;79.78
65394;BME280;52002;49.760;6.512;2023-12-22T10:53:12;99124.94;;;9.39;79.87
65394;BME280;52002;49.760;6.512;2023-12-22T10:55:38;99123.40;;;9.38;79.78
65394;BME280;52002;49.760;6.512;2023-12-22T10:58:05;99120.15;;;9.37;80.05
65394;BME280;52002;49.760;6.512;2023-12-22T11:00:36;99118.86;;;9.37;80.12
65394;BME280;52002;49.760;6.512;2023-12-22T11:03:06;99101.84;;;9.42;80.33
65394;BME280;52002;49.760;6.512;2023-12-22T11:05:36;99089.09;;;9.47;80.53
65394;BME280;52002;49.760;6.512;2023-12-22T11:08:03;99087.60;;;9.52;80.46
65394;BME280;52002;49.760;6.512;2023-12-22T11:10:30;99088.48;;;9.53;80.42
65394;BME280;52002;49.760;6.512;2023-12-22T11:12:57;99075.98;;;9.52;80.75
65394;BME280;52002;49.760;6.512;2023-12-22T11:15:24;99077.97;;;9.52;80.67
65394;BME280;52002;49.760;6.512;2023-12-22T11:17:52;99083.84;;;9.52;80.80
65394;BME280;52002;49.760;6.512;2023-12-22T11:20:19;99080.00;;;9.51;81.07
65394;BME280;52002;49.760;6.512;2023-12-22T11:22:46;99078.17;;;9.52;81.23
65394;BME280;52002;49.760;6.512;2023-12-22T11:25:16;99083.58;;;9.49;81.25
65394;BME280;52002;49.760;6.512;2023-12-22T11:27:43;99086.31;;;9.47;81.25
65394;BME280;52002;49.760;6.512;2023-12-22T11:30:11;99084.01;;;9.47;81.70
65394;BME280;52002;49.760;6.512;2023-12-22T11:32:39;99076.23;;;9.48;81.62
65394;BME280;52002;49.760;6.512;2023-12-22T11:35:05;99077.10;;;9.48;81.78
65394;BME280;52002;49.760;6.512;2023-12-22T11:37:35;99072.91;;;9.49;81.92
65394;BME280;52002;49.760;6.512;2023-12-22T11:40:00;99078.60;;;9.49;81.82
65394;BME280;52002;49.760;6.512;2023-12-22T11:42:30;99070.27;;;9.51;81.93
65394;BME280;52002;49.760;6.512;2023-12-22T11:44:58;99070.95;;;9.51;81.95
65394;BME280;52002;49.760;6.512;2023-12-22T11:47:24;99073.34;;;9.52;82.15
65394;BME280;52002;49.760;6.512;2023-12-22T11:49:50;99068.73;;;9.55;82.47
65394;BME280;52002;49.760;6.512;2023-12-22T11:52:17;99066.92;;;9.58;82.30
65394;BME280;52002;49.760;6.512;2023-12-22T12:02:54;99063.36;;;9.60;82.55
65394;BME280;52002;49.760;6.512;2023-12-22T12:05:20;99062.55;;;9.61;82.66
65394;BME280;52002;49.760;6.512;2023-12-22T12:07:46;99069.73;;;9.64;82.70
65394;BME280;52002;49.760;6.512;2023-12-22T12:13:15;99068.57;;;9.68;82.70
65394;BME280;52002;49.760;6.512;2023-12-22T12:15:41;99064.45;;;9.72;82.78
65394;BME280;52002;49.760;6.512;2023-12-22T12:18:07;99063.27;;;9.77;82.73
65394;BME280;52002;49.760;6.512;2023-12-22T12:20:33;99063.87;;;9.76;82.57
65394;BME280;52002;49.760;6.512;2023-12-22T12:23:01;99062.92;;;9.75;82.23
65394;BME280;52002;49.760;6.512;2023-12-22T12:25:31;99059.48;;;9.74;81.89
65394;BME280;52002;49.760;6.512;2023-12-22T12:28:07;99051.61;;;9.71;82.19
65394;BME280;52002;49.760;6.512;2023-12-22T12:30:38;99048.28;;;9.70;82.13
65394;BME280;52002;49.760;6.512;2023-12-22T12:33:14;99052.97;;;9.70;82.29
65394;BME280;52002;49.760;6.512;2023-12-22T12:35:41;99057.20;;;9.70;82.45
65394;BME280;52002;49.760;6.512;2023-12-22T12:38:09;99053.04;;;9.69;82.35
65394;BME280;52002;49.760;6.512;2023-12-22T12:40:39;99047.95;;;9.68;82.29
65394;BME280;52002;49.760;6.512;2023-12-22T12:43:06;99051.17;;;9.70;82.47
65394;BME280;52002;49.760;6.512;2023-12-22T12:45:31;99051.66;;;9.72;82.52
65394;BME280;52002;49.760;6.512;2023-12-22T12:48:03;99059.73;;;9.73;82.33
65394;BME280;52002;49.760;6.512;2023-12-22T12:50:29;99052.64;;;9.75;82.28
65394;BME280;52002;49.760;6.512;2023-12-22T12:52:56;99058.91;;;9.80;82.37
65394;BME280;52002;49.760;6.512;2023-12-22T12:55:23;99051.44;;;9.83;81.96
65394;BME280;52002;49.760;6.512;2023-12-22T12:57:49;99061.27;;;9.88;81.91
65394;BME280;52002;49.760;6.512;2023-12-22T13:00:28;99060.18;;;9.89;81.72
65394;BME280;52002;49.760;6.512;2023-12-22T13:03:04;99055.02;;;9.86;81.59
65394;BME280;52002;49.760;6.512;2023-12-22T13:05:30;99049.86;;;9.86;81.67
65394;BME280;52002;49.760;6.512;2023-12-22T13:08:12;99050.15;;;9.89;81.87
65394;BME280;52002;49.760;6.512;2023-12-22T13:10:38;99046.92;;;9.90;81.64
65394;BME280;52002;49.760;6.512;2023-12-22T13:13:04;99049.30;;;9.89;81.81
65394;BME280;52002;49.760;6.512;2023-12-22T13:15:30;99063.91;;;9.89;81.93
65394;BME280;52002;49.760;6.512;2023-12-22T13:17:56;99063.31;;;9.85;81.84